sensor_id;sensor_type;location;lat;lon;timestamp;temperature;humidity
14585;DHT22;7379;51.506;11.876;2023-09-07T00:01:11;21.20;66.30
14585;DHT22;7379;51.506;11.876;2023-09-07T00:03:38;21.20;66.40
14585;DHT22;7379;51.506;11.876;2023-09-07T00:06:07;21.20;66.40
14585;DHT22;7379;51.506;11.876;2023-09-07T00:08:34;21.20;66.50
14585;DHT22;7379;51.506;11.876;2023-09-07T00:11:04;21.20;66.50
14585;DHT22;7379;51.506;11.876;2023-09-07T00:13:31;21.20;66.50
14585;DHT22;7379;51.506;11.876;2023-09-07T00:15:58;21.20;66.50
14585;DHT22;7379;51.506;11.876;2023-09-07T00:18:26;21.10;66.50
14585;DHT22;7379;51.506;11.876;2023-09-07T00:20:52;21.10;66.50
14585;DHT22;7379;51.506;11.876;2023-09-07T00:23:20;21.10;66.50
14585;DHT22;7379;51.506;11.876;2023-09-07T00:25:47;21.10;66.60
14585;DHT22;7379;51.506;11.876;2023-09-07T00:28:14;21.10;66.60
14585;DHT22;7379;51.506;11.876;2023-09-07T00:30:41;21.10;66.70
14585;DHT22;7379;51.506;11.876;2023-09-07T00:33:08;21.10;66.70
14585;DHT22;7379;51.506;11.876;2023-09-07T00:35:36;21.00;66.70
14585;DHT22;7379;51.506;11.876;2023-09-07T00:38:03;21.00;66.60
14585;DHT22;7379;51.506;11.876;2023-09-07T00:40:31;21.00;66.70
14585;DHT22;7379;51.506;11.876;2023-09-07T00:42:59;21.00;66.70
14585;DHT22;7379;51.506;11.876;2023-09-07T00:45:25;21.00;66.70
14585;DHT22;7379;51.506;11.876;2023-09-07T00:47:52;21.00;66.80
14585;DHT22;7379;51.506;11.876;2023-09-07T00:50:19;21.00;66.80
14585;DHT22;7379;51.506;11.876;2023-09-07T00:52:47;20.90;66.70
14585;DHT22;7379;51.506;11.876;2023-09-07T00:55:14;20.90;66.80
14585;DHT22;7379;51.506;11.876;2023-09-07T00:57:43;20.90;66.80
14585;DHT22;7379;51.506;11.876;2023-09-07T01:00:10;20.90;66.90
14585;DHT22;7379;51.506;11.876;2023-09-07T01:02:37;20.90;66.90
14585;DHT22;7379;51.506;11.876;2023-09-07T01:05:05;20.90;66.90
14585;DHT22;7379;51.506;11.876;2023-09-07T01:07:35;20.80;66.80
14585;DHT22;7379;51.506;11.876;2023-09-07T01:10:04;20.80;66.90
14585;DHT22;7379;51.506;11.876;2023-09-07T01:12:31;20.80;66.90
14585;DHT22;7379;51.506;11.876;2023-09-07T01:14:59;20.80;66.90
14585;DHT22;7379;51.506;11.876;2023-09-07T01:17:26;20.80;66.90
14585;DHT22;7379;51.506;11.876;2023-09-07T01:19:54;20.80;66.90
14585;DHT22;7379;51.506;11.876;2023-09-07T01:22:23;20.80;67.00
14585;DHT22;7379;51.506;11.876;2023-09-07T01:24:50;20.80;67.00
14585;DHT22;7379;51.506;11.876;2023-09-07T01:27:18;20.70;67.00
14585;DHT22;7379;51.506;11.876;2023-09-07T01:29:45;20.70;67.00
14585;DHT22;7379;51.506;11.876;2023-09-07T01:32:12;20.70;67.00
14585;DHT22;7379;51.506;11.876;2023-09-07T01:34:39;20.70;67.00
14585;DHT22;7379;51.506;11.876;2023-09-07T01:37:06;20.70;67.10
14585;DHT22;7379;51.506;11.876;2023-09-07T01:39:34;20.70;67.10
14585;DHT22;7379;51.506;11.876;2023-09-07T01:42:00;20.70;67.20
14585;DHT22;7379;51.506;11.876;2023-09-07T01:44:27;20.60;67.10
14585;DHT22;7379;51.506;11.876;2023-09-07T01:46:55;20.60;67.10
14585;DHT22;7379;51.506;11.876;2023-09-07T01:49:22;20.60;67.10
14585;DHT22;7379;51.506;11.876;2023-09-07T01:51:51;20.60;67.20
14585;DHT22;7379;51.506;11.876;2023-09-07T01:54:18;20.60;67.20
14585;DHT22;7379;51.506;11.876;2023-09-07T01:56:46;20.60;67.30
14585;DHT22;7379;51.506;11.876;2023-09-07T01:59:12;20.50;67.20
14585;DHT22;7379;51.506;11.876;2023-09-07T02:01:39;20.50;67.20
14585;DHT22;7379;51.506;11.876;2023-09-07T02:04:06;20.50;67.30
14585;DHT22;7379;51.506;11.876;2023-09-07T02:06:33;20.50;67.30
14585;DHT22;7379;51.506;11.876;2023-09-07T02:09:00;20.50;67.30
14585;DHT22;7379;51.506;11.876;2023-09-07T02:11:27;20.50;67.30
14585;DHT22;7379;51.506;11.876;2023-09-07T02:13:55;20.50;67.30
14585;DHT22;7379;51.506;11.876;2023-09-07T02:16:22;20.40;67.30
14585;DHT22;7379;51.506;11.876;2023-09-07T02:18:50;20.40;67.30
14585;DHT22;7379;51.506;11.876;2023-09-07T02:21:17;20.40;67.30
14585;DHT22;7379;51.506;11.876;2023-09-07T02:23:43;20.40;67.40
14585;DHT22;7379;51.506;11.876;2023-09-07T02:26:10;20.40;67.40
14585;DHT22;7379;51.506;11.876;2023-09-07T02:28:37;20.40;67.40
14585;DHT22;7379;51.506;11.876;2023-09-07T02:31:06;20.40;67.50
14585;DHT22;7379;51.506;11.876;2023-09-07T02:33:33;20.40;67.50
14585;DHT22;7379;51.506;11.876;2023-09-07T02:36:00;20.30;67.40
14585;DHT22;7379;51.506;11.876;2023-09-07T02:38:28;20.30;67.50
14585;DHT22;7379;51.506;11.876;2023-09-07T02:40:56;20.30;67.50
14585;DHT22;7379;51.506;11.876;2023-09-07T02:43:23;20.30;67.50
14585;DHT22;7379;51.506;11.876;2023-09-07T02:45:50;20.30;67.60
14585;DHT22;7379;51.506;11.876;2023-09-07T02:48:18;20.20;67.50
14585;DHT22;7379;51.506;11.876;2023-09-07T02:50:45;20.20;67.50
14585;DHT22;7379;51.506;11.876;2023-09-07T02:53:14;20.20;67.60
14585;DHT22;7379;51.506;11.876;2023-09-07T02:55:41;20.20;67.60
14585;DHT22;7379;51.506;11.876;2023-09-07T02:58:07;20.20;67.60
14585;DHT22;7379;51.506;11.876;2023-09-07T03:00:34;20.20;67.60
14585;DHT22;7379;51.506;11.876;2023-09-07T03:03:01;20.10;67.60
14585;DHT22;7379;51.506;11.876;2023-09-07T03:05:30;20.20;67.70
14585;DHT22;7379;51.506;11.876;2023-09-07T03:07:56;20.10;67.60
14585;DHT22;7379;51.506;11.876;2023-09-07T03:10:23;20.10;67.60
14585;DHT22;7379;51.506;11.876;2023-09-07T03:12:50;20.10;67.70
14585;DHT22;7379;51.506;11.876;2023-09-07T03:15:20;20.10;67.70
14585;DHT22;7379;51.506;11.876;2023-09-07T03:17:47;20.10;67.70
14585;DHT22;7379;51.506;11.876;2023-09-07T03:20:14;20.00;67.70
14585;DHT22;7379;51.506;11.876;2023-09-07T03:22:43;20.00;67.70
14585;DHT22;7379;51.506;11.876;2023-09-07T03:25:10;20.00;67.70
14585;DHT22;7379;51.506;11.876;2023-09-07T03:27:38;20.00;67.70
14585;DHT22;7379;51.506;11.876;2023-09-07T03:30:05;20.00;67.80
14585;DHT22;7379;51.506;11.876;2023-09-07T03:32:33;20.00;67.80
14585;DHT22;7379;51.506;11.876;2023-09-07T03:35:02;20.00;67.80
14585;DHT22;7379;51.506;11.876;2023-09-07T03:37:29;20.00;67.80
14585;DHT22;7379;51.506;11.876;2023-09-07T03:39:57;19.90;67.80
14585;DHT22;7379;51.506;11.876;2023-09-07T03:42:24;19.90;67.80
14585;DHT22;7379;51.506;11.876;2023-09-07T03:44:50;19.90;67.80
14585;DHT22;7379;51.506;11.876;2023-09-07T03:47:17;19.90;67.90
14585;DHT22;7379;51.506;11.876;2023-09-07T03:49:44;19.90;67.90
14585;DHT22;7379;51.506;11.876;2023-09-07T03:52:11;19.90;67.90
14585;DHT22;7379;51.506;11.876;2023-09-07T03:54:37;19.80;67.90
14585;DHT22;7379;51.506;11.876;2023-09-07T03:57:06;19.80;67.90
14585;DHT22;7379;51.506;11.876;2023-09-07T03:59:32;19.80;67.90
14585;DHT22;7379;51.506;11.876;2023-09-07T04:01:59;19.80;68.00
14585;DHT22;7379;51.506;11.876;2023-09-07T04:04:26;19.80;67.90
14585;DHT22;7379;51.506;11.876;2023-09-07T04:06:53;19.80;68.00
14585;DHT22;7379;51.506;11.876;2023-09-07T04:09:19;19.80;68.00
14585;DHT22;7379;51.506;11.876;2023-09-07T04:11:46;19.70;68.00
14585;DHT22;7379;51.506;11.876;2023-09-07T04:14:14;19.70;68.00
14585;DHT22;7379;51.506;11.876;2023-09-07T04:16:41;19.70;68.00
14585;DHT22;7379;51.506;11.876;2023-09-07T04:19:08;19.70;68.00
14585;DHT22;7379;51.506;11.876;2023-09-07T04:21:35;19.70;68.00
14585;DHT22;7379;51.506;11.876;2023-09-07T04:24:03;19.70;68.00
14585;DHT22;7379;51.506;11.876;2023-09-07T04:26:29;19.70;68.10
14585;DHT22;7379;51.506;11.876;2023-09-07T04:28:56;19.60;68.10
14585;DHT22;7379;51.506;11.876;2023-09-07T04:31:24;19.60;68.10
14585;DHT22;7379;51.506;11.876;2023-09-07T04:33:53;19.60;68.20
14585;DHT22;7379;51.506;11.876;2023-09-07T04:36:19;19.60;68.10
14585;DHT22;7379;51.506;11.876;2023-09-07T04:38:46;19.60;68.20
14585;DHT22;7379;51.506;11.876;2023-09-07T04:41:13;19.60;68.20
14585;DHT22;7379;51.506;11.876;2023-09-07T04:43:41;19.60;68.30
14585;DHT22;7379;51.506;11.876;2023-09-07T04:46:09;19.60;68.30
14585;DHT22;7379;51.506;11.876;2023-09-07T04:48:37;19.50;68.30
14585;DHT22;7379;51.506;11.876;2023-09-07T04:51:05;19.50;68.30
14585;DHT22;7379;51.506;11.876;2023-09-07T04:53:33;19.50;68.30
14585;DHT22;7379;51.506;11.876;2023-09-07T04:56:01;19.50;68.40
14585;DHT22;7379;51.506;11.876;2023-09-07T04:58:28;19.50;68.40
14585;DHT22;7379;51.506;11.876;2023-09-07T05:01:01;19.50;68.40
14585;DHT22;7379;51.506;11.876;2023-09-07T05:03:28;19.50;68.40
14585;DHT22;7379;51.506;11.876;2023-09-07T05:05:57;19.50;68.50
14585;DHT22;7379;51.506;11.876;2023-09-07T05:08:23;19.50;68.50
14585;DHT22;7379;51.506;11.876;2023-09-07T05:10:54;19.40;68.40
14585;DHT22;7379;51.506;11.876;2023-09-07T05:13:21;19.40;68.50
14585;DHT22;7379;51.506;11.876;2023-09-07T05:19:10;19.40;68.50
14585;DHT22;7379;51.506;11.876;2023-09-07T05:21:38;19.40;68.60
14585;DHT22;7379;51.506;11.876;2023-09-07T05:24:05;19.40;68.60
14585;DHT22;7379;51.506;11.876;2023-09-07T05:26:32;19.40;68.70
14585;DHT22;7379;51.506;11.876;2023-09-07T05:28:59;19.40;68.70
14585;DHT22;7379;51.506;11.876;2023-09-07T05:31:25;19.40;68.70
14585;DHT22;7379;51.506;11.876;2023-09-07T05:33:52;19.30;68.70
14585;DHT22;7379;51.506;11.876;2023-09-07T05:36:19;19.30;68.70
14585;DHT22;7379;51.506;11.876;2023-09-07T05:38:47;19.30;68.70
14585;DHT22;7379;51.506;11.876;2023-09-07T05:41:14;19.30;68.80
14585;DHT22;7379;51.506;11.876;2023-09-07T05:43:40;19.30;68.80
14585;DHT22;7379;51.506;11.876;2023-09-07T05:46:07;19.30;68.80
14585;DHT22;7379;51.506;11.876;2023-09-07T05:48:34;19.30;68.80
14585;DHT22;7379;51.506;11.876;2023-09-07T05:51:00;19.20;68.90
14585;DHT22;7379;51.506;11.876;2023-09-07T05:53:27;19.10;69.40
14585;DHT22;7379;51.506;11.876;2023-09-07T05:55:55;19.10;69.80
14585;DHT22;7379;51.506;11.876;2023-09-07T05:58:22;19.00;70.00
14585;DHT22;7379;51.506;11.876;2023-09-07T06:00:49;18.90;70.20
14585;DHT22;7379;51.506;11.876;2023-09-07T06:03:15;18.90;70.50
14585;DHT22;7379;51.506;11.876;2023-09-07T06:05:42;18.80;70.70
14585;DHT22;7379;51.506;11.876;2023-09-07T06:08:10;18.80;71.00
14585;DHT22;7379;51.506;11.876;2023-09-07T06:10:36;18.70;71.20
14585;DHT22;7379;51.506;11.876;2023-09-07T06:13:05;18.70;71.40
14585;DHT22;7379;51.506;11.876;2023-09-07T06:15:31;18.70;71.50
14585;DHT22;7379;51.506;11.876;2023-09-07T06:17:58;18.70;71.60
14585;DHT22;7379;51.506;11.876;2023-09-07T06:20:25;18.70;71.80
14585;DHT22;7379;51.506;11.876;2023-09-07T06:22:52;18.70;71.90
14585;DHT22;7379;51.506;11.876;2023-09-07T06:25:18;18.70;72.10
14585;DHT22;7379;51.506;11.876;2023-09-07T06:27:47;18.60;72.20
14585;DHT22;7379;51.506;11.876;2023-09-07T06:30:15;18.60;72.90
14585;DHT22;7379;51.506;11.876;2023-09-07T06:32:42;18.60;72.40
14585;DHT22;7379;51.506;11.876;2023-09-07T06:35:09;18.60;72.50
14585;DHT22;7379;51.506;11.876;2023-09-07T06:37:36;18.60;72.50
14585;DHT22;7379;51.506;11.876;2023-09-07T06:40:07;18.60;72.60
14585;DHT22;7379;51.506;11.876;2023-09-07T06:42:34;18.60;72.70
14585;DHT22;7379;51.506;11.876;2023-09-07T06:45:01;18.60;73.70
14585;DHT22;7379;51.506;11.876;2023-09-07T06:47:29;18.60;73.20
14585;DHT22;7379;51.506;11.876;2023-09-07T06:49:56;18.60;73.10
14585;DHT22;7379;51.506;11.876;2023-09-07T06:52:23;18.60;73.20
14585;DHT22;7379;51.506;11.876;2023-09-07T06:54:52;18.70;73.40
14585;DHT22;7379;51.506;11.876;2023-09-07T06:57:19;18.70;73.50
14585;DHT22;7379;51.506;11.876;2023-09-07T06:59:46;18.70;73.50
14585;DHT22;7379;51.506;11.876;2023-09-07T07:02:14;18.70;73.50
14585;DHT22;7379;51.506;11.876;2023-09-07T07:04:42;18.80;73.20
14585;DHT22;7379;51.506;11.876;2023-09-07T07:07:09;18.80;73.00
14585;DHT22;7379;51.506;11.876;2023-09-07T07:09:36;18.80;72.90
14585;DHT22;7379;51.506;11.876;2023-09-07T07:12:04;18.90;72.90
14585;DHT22;7379;51.506;11.876;2023-09-07T07:14:30;18.90;72.80
14585;DHT22;7379;51.506;11.876;2023-09-07T07:16:57;18.90;72.70
14585;DHT22;7379;51.506;11.876;2023-09-07T07:19:24;18.90;72.60
14585;DHT22;7379;51.506;11.876;2023-09-07T07:21:52;18.90;72.50
14585;DHT22;7379;51.506;11.876;2023-09-07T07:24:19;18.90;72.50
14585;DHT22;7379;51.506;11.876;2023-09-07T07:26:46;18.90;72.30
14585;DHT22;7379;51.506;11.876;2023-09-07T07:29:12;19.00;72.40
14585;DHT22;7379;51.506;11.876;2023-09-07T07:31:39;18.90;72.30
14585;DHT22;7379;51.506;11.876;2023-09-07T07:34:06;19.00;72.40
14585;DHT22;7379;51.506;11.876;2023-09-07T07:36:33;19.00;72.40
14585;DHT22;7379;51.506;11.876;2023-09-07T07:39:02;19.00;72.40
14585;DHT22;7379;51.506;11.876;2023-09-07T07:41:29;19.00;72.40
14585;DHT22;7379;51.506;11.876;2023-09-07T07:43:56;19.00;72.30
14585;DHT22;7379;51.506;11.876;2023-09-07T07:46:23;19.00;72.30
14585;DHT22;7379;51.506;11.876;2023-09-07T07:48:49;19.00;72.30
14585;DHT22;7379;51.506;11.876;2023-09-07T07:51:16;19.00;72.40
14585;DHT22;7379;51.506;11.876;2023-09-07T07:53:43;19.00;72.50
14585;DHT22;7379;51.506;11.876;2023-09-07T07:56:16;19.00;72.70
14585;DHT22;7379;51.506;11.876;2023-09-07T07:58:42;19.00;72.70
14585;DHT22;7379;51.506;11.876;2023-09-07T08:01:14;19.00;73.00
14585;DHT22;7379;51.506;11.876;2023-09-07T08:03:40;19.00;72.90
14585;DHT22;7379;51.506;11.876;2023-09-07T08:06:07;19.10;73.10
14585;DHT22;7379;51.506;11.876;2023-09-07T08:08:34;19.10;73.20
14585;DHT22;7379;51.506;11.876;2023-09-07T08:11:01;19.10;73.40
14585;DHT22;7379;51.506;11.876;2023-09-07T08:13:32;19.10;74.00
14585;DHT22;7379;51.506;11.876;2023-09-07T08:16:00;19.10;73.80
14585;DHT22;7379;51.506;11.876;2023-09-07T08:18:27;19.10;73.70
14585;DHT22;7379;51.506;11.876;2023-09-07T08:20:55;19.10;73.70
14585;DHT22;7379;51.506;11.876;2023-09-07T08:23:22;19.10;73.80
14585;DHT22;7379;51.506;11.876;2023-09-07T08:25:50;19.20;73.90
14585;DHT22;7379;51.506;11.876;2023-09-07T08:28:17;19.20;73.90
14585;DHT22;7379;51.506;11.876;2023-09-07T08:30:45;19.20;74.00
14585;DHT22;7379;51.506;11.876;2023-09-07T08:33:12;19.20;74.20
14585;DHT22;7379;51.506;11.876;2023-09-07T08:35:39;19.20;74.10
14585;DHT22;7379;51.506;11.876;2023-09-07T08:38:09;19.30;74.20
14585;DHT22;7379;51.506;11.876;2023-09-07T08:40:36;19.30;74.10
14585;DHT22;7379;51.506;11.876;2023-09-07T08:43:09;19.30;74.10
14585;DHT22;7379;51.506;11.876;2023-09-07T08:45:41;19.30;74.00
14585;DHT22;7379;51.506;11.876;2023-09-07T08:48:10;19.30;74.10
14585;DHT22;7379;51.506;11.876;2023-09-07T08:50:38;19.40;74.20
14585;DHT22;7379;51.506;11.876;2023-09-07T08:53:08;19.40;74.30
14585;DHT22;7379;51.506;11.876;2023-09-07T08:55:35;19.40;74.20
14585;DHT22;7379;51.506;11.876;2023-09-07T08:58:02;19.40;74.10
14585;DHT22;7379;51.506;11.876;2023-09-07T09:00:28;19.40;74.10
14585;DHT22;7379;51.506;11.876;2023-09-07T09:02:56;19.40;74.10
14585;DHT22;7379;51.506;11.876;2023-09-07T09:05:26;19.40;74.20
14585;DHT22;7379;51.506;11.876;2023-09-07T09:08:01;19.50;74.30
14585;DHT22;7379;51.506;11.876;2023-09-07T09:10:29;19.50;74.40
14585;DHT22;7379;51.506;11.876;2023-09-07T09:12:56;19.50;74.50
14585;DHT22;7379;51.506;11.876;2023-09-07T09:15:25;19.50;74.50
14585;DHT22;7379;51.506;11.876;2023-09-07T09:17:51;19.50;74.60
14585;DHT22;7379;51.506;11.876;2023-09-07T09:20:22;19.50;74.50
14585;DHT22;7379;51.506;11.876;2023-09-07T09:22:55;19.50;74.40
14585;DHT22;7379;51.506;11.876;2023-09-07T09:25:22;19.50;74.60
14585;DHT22;7379;51.506;11.876;2023-09-07T09:27:49;19.50;74.70
14585;DHT22;7379;51.506;11.876;2023-09-07T09:30:15;19.50;74.70
14585;DHT22;7379;51.506;11.876;2023-09-07T09:32:43;19.50;74.80
14585;DHT22;7379;51.506;11.876;2023-09-07T09:35:10;19.50;74.90
14585;DHT22;7379;51.506;11.876;2023-09-07T09:37:44;19.60;74.80
14585;DHT22;7379;51.506;11.876;2023-09-07T09:40:14;19.60;75.10
14585;DHT22;7379;51.506;11.876;2023-09-07T09:42:42;19.60;75.20
14585;DHT22;7379;51.506;11.876;2023-09-07T09:45:10;19.60;75.20
14585;DHT22;7379;51.506;11.876;2023-09-07T09:47:39;19.60;74.90
14585;DHT22;7379;51.506;11.876;2023-09-07T09:50:07;19.60;74.80
14585;DHT22;7379;51.506;11.876;2023-09-07T09:52:35;19.60;75.00
14585;DHT22;7379;51.506;11.876;2023-09-07T09:55:04;19.70;75.00
14585;DHT22;7379;51.506;11.876;2023-09-07T09:57:35;19.70;74.90
14585;DHT22;7379;51.506;11.876;2023-09-07T10:00:03;19.70;75.00
14585;DHT22;7379;51.506;11.876;2023-09-07T10:02:47;19.70;75.00
14585;DHT22;7379;51.506;11.876;2023-09-07T10:05:15;19.70;75.10
14585;DHT22;7379;51.506;11.876;2023-09-07T10:07:43;19.80;75.20
14585;DHT22;7379;51.506;11.876;2023-09-07T10:10:12;19.80;74.90
14585;DHT22;7379;51.506;11.876;2023-09-07T10:12:44;19.90;75.10
14585;DHT22;7379;51.506;11.876;2023-09-07T10:15:22;19.90;75.00
14585;DHT22;7379;51.506;11.876;2023-09-07T10:17:49;20.00;74.50
14585;DHT22;7379;51.506;11.876;2023-09-07T10:20:18;20.00;74.60
14585;DHT22;7379;51.506;11.876;2023-09-07T10:22:48;20.00;74.70
14585;DHT22;7379;51.506;11.876;2023-09-07T10:25:19;20.00;74.40
14585;DHT22;7379;51.506;11.876;2023-09-07T10:27:48;20.00;73.90
14585;DHT22;7379;51.506;11.876;2023-09-07T10:30:14;20.10;74.00
14585;DHT22;7379;51.506;11.876;2023-09-07T10:32:45;20.10;74.00
14585;DHT22;7379;51.506;11.876;2023-09-07T10:35:16;20.10;73.90
14585;DHT22;7379;51.506;11.876;2023-09-07T10:37:44;20.20;73.80
14585;DHT22;7379;51.506;11.876;2023-09-07T10:40:12;20.20;73.20
14585;DHT22;7379;51.506;11.876;2023-09-07T10:42:41;20.30;73.30
14585;DHT22;7379;51.506;11.876;2023-09-07T10:45:11;20.30;73.00
14585;DHT22;7379;51.506;11.876;2023-09-07T10:47:41;20.30;72.90
14585;DHT22;7379;51.506;11.876;2023-09-07T10:50:09;20.30;72.70
14585;DHT22;7379;51.506;11.876;2023-09-07T10:52:36;20.40;72.80
14585;DHT22;7379;51.506;11.876;2023-09-07T10:55:03;20.40;72.50
14585;DHT22;7379;51.506;11.876;2023-09-07T10:57:30;20.40;72.10
14585;DHT22;7379;51.506;11.876;2023-09-07T10:59:58;20.40;72.00
14585;DHT22;7379;51.506;11.876;2023-09-07T11:02:26;20.50;72.30
14585;DHT22;7379;51.506;11.876;2023-09-07T11:04:53;20.50;71.90
14585;DHT22;7379;51.506;11.876;2023-09-07T11:07:20;20.50;72.10
14585;DHT22;7379;51.506;11.876;2023-09-07T11:09:51;20.60;71.80
14585;DHT22;7379;51.506;11.876;2023-09-07T11:12:20;20.60;71.50
14585;DHT22;7379;51.506;11.876;2023-09-07T11:14:47;20.70;72.00
14585;DHT22;7379;51.506;11.876;2023-09-07T11:17:15;20.70;71.70
14585;DHT22;7379;51.506;11.876;2023-09-07T11:19:43;20.70;71.80
14585;DHT22;7379;51.506;11.876;2023-09-07T11:22:10;20.80;71.40
14585;DHT22;7379;51.506;11.876;2023-09-07T11:24:37;20.80;71.00
14585;DHT22;7379;51.506;11.876;2023-09-07T11:27:04;20.80;71.00
14585;DHT22;7379;51.506;11.876;2023-09-07T11:29:31;20.80;70.90
14585;DHT22;7379;51.506;11.876;2023-09-07T11:32:05;20.90;70.80
14585;DHT22;7379;51.506;11.876;2023-09-07T11:34:32;20.90;70.90
14585;DHT22;7379;51.506;11.876;2023-09-07T11:37:02;20.90;71.70
14585;DHT22;7379;51.506;11.876;2023-09-07T11:39:29;20.90;71.40
14585;DHT22;7379;51.506;11.876;2023-09-07T11:41:56;21.00;70.90
14585;DHT22;7379;51.506;11.876;2023-09-07T11:44:23;21.00;70.60
14585;DHT22;7379;51.506;11.876;2023-09-07T11:46:49;21.00;70.60
14585;DHT22;7379;51.506;11.876;2023-09-07T11:49:16;21.00;70.50
14585;DHT22;7379;51.506;11.876;2023-09-07T11:51:45;21.00;70.70
14585;DHT22;7379;51.506;11.876;2023-09-07T11:54:13;21.00;70.20
14585;DHT22;7379;51.506;11.876;2023-09-07T11:56:40;21.10;70.50
14585;DHT22;7379;51.506;11.876;2023-09-07T11:59:08;21.10;70.20
14585;DHT22;7379;51.506;11.876;2023-09-07T12:01:35;21.10;70.70
14585;DHT22;7379;51.506;11.876;2023-09-07T12:04:05;21.20;70.30
14585;DHT22;7379;51.506;11.876;2023-09-07T12:06:32;21.20;70.20
14585;DHT22;7379;51.506;11.876;2023-09-07T12:09:00;21.30;69.80
14585;DHT22;7379;51.506;11.876;2023-09-07T12:11:28;21.30;69.60
14585;DHT22;7379;51.506;11.876;2023-09-07T12:13:56;21.30;69.80
14585;DHT22;7379;51.506;11.876;2023-09-07T12:16:23;21.40;69.40
14585;DHT22;7379;51.506;11.876;2023-09-07T12:18:49;21.40;69.20
14585;DHT22;7379;51.506;11.876;2023-09-07T12:21:16;21.40;69.00
14585;DHT22;7379;51.506;11.876;2023-09-07T12:23:43;21.50;68.90
14585;DHT22;7379;51.506;11.876;2023-09-07T12:26:09;21.50;68.70
14585;DHT22;7379;51.506;11.876;2023-09-07T12:28:37;21.60;68.10
14585;DHT22;7379;51.506;11.876;2023-09-07T12:31:04;21.70;67.90
14585;DHT22;7379;51.506;11.876;2023-09-07T12:33:31;21.70;67.70
14585;DHT22;7379;51.506;11.876;2023-09-07T12:35:58;21.70;67.00
14585;DHT22;7379;51.506;11.876;2023-09-07T12:38:25;21.80;67.30
14585;DHT22;7379;51.506;11.876;2023-09-07T12:40:54;21.80;66.70
14585;DHT22;7379;51.506;11.876;2023-09-07T12:43:20;21.80;66.70
14585;DHT22;7379;51.506;11.876;2023-09-07T12:45:49;21.90;67.60
14585;DHT22;7379;51.506;11.876;2023-09-07T12:48:15;22.00;66.60
14585;DHT22;7379;51.506;11.876;2023-09-07T12:50:42;22.00;65.80
14585;DHT22;7379;51.506;11.876;2023-09-07T12:53:09;22.10;66.10
14585;DHT22;7379;51.506;11.876;2023-09-07T12:55:36;22.10;65.80
14585;DHT22;7379;51.506;11.876;2023-09-07T12:58:03;22.20;65.90
14585;DHT22;7379;51.506;11.876;2023-09-07T13:00:29;22.20;65.90
14585;DHT22;7379;51.506;11.876;2023-09-07T13:02:57;22.20;65.30
14585;DHT22;7379;51.506;11.876;2023-09-07T13:05:24;22.20;65.00
14585;DHT22;7379;51.506;11.876;2023-09-07T13:07:51;22.30;64.80
14585;DHT22;7379;51.506;11.876;2023-09-07T13:10:20;22.30;64.70
14585;DHT22;7379;51.506;11.876;2023-09-07T13:12:46;22.30;64.60
14585;DHT22;7379;51.506;11.876;2023-09-07T13:15:13;22.30;64.40
14585;DHT22;7379;51.506;11.876;2023-09-07T13:17:40;22.40;64.30
14585;DHT22;7379;51.506;11.876;2023-09-07T13:20:09;22.40;64.00
14585;DHT22;7379;51.506;11.876;2023-09-07T13:22:37;22.40;63.40
14585;DHT22;7379;51.506;11.876;2023-09-07T13:25:05;22.50;63.00
14585;DHT22;7379;51.506;11.876;2023-09-07T13:27:32;22.50;62.70
14585;DHT22;7379;51.506;11.876;2023-09-07T13:29:58;22.50;63.00
14585;DHT22;7379;51.506;11.876;2023-09-07T13:32:26;22.60;62.80
14585;DHT22;7379;51.506;11.876;2023-09-07T13:34:53;22.60;62.10
14585;DHT22;7379;51.506;11.876;2023-09-07T13:37:21;22.60;62.50
14585;DHT22;7379;51.506;11.876;2023-09-07T13:39:48;22.70;62.50
14585;DHT22;7379;51.506;11.876;2023-09-07T13:42:29;22.80;62.30
14585;DHT22;7379;51.506;11.876;2023-09-07T13:44:56;22.80;61.60
14585;DHT22;7379;51.506;11.876;2023-09-07T13:47:23;22.80;62.10
14585;DHT22;7379;51.506;11.876;2023-09-07T13:49:49;23.00;61.80
14585;DHT22;7379;51.506;11.876;2023-09-07T13:52:16;23.10;61.80
14585;DHT22;7379;51.506;11.876;2023-09-07T13:54:44;23.10;61.10
14585;DHT22;7379;51.506;11.876;2023-09-07T13:57:11;23.10;60.90
14585;DHT22;7379;51.506;11.876;2023-09-07T13:59:37;23.30;61.00
14585;DHT22;7379;51.506;11.876;2023-09-07T14:02:04;23.20;60.30
14585;DHT22;7379;51.506;11.876;2023-09-07T14:04:31;23.20;60.50
14585;DHT22;7379;51.506;11.876;2023-09-07T14:06:58;23.30;60.50
14585;DHT22;7379;51.506;11.876;2023-09-07T14:09:24;23.30;60.40
14585;DHT22;7379;51.506;11.876;2023-09-07T14:11:52;23.40;60.00
14585;DHT22;7379;51.506;11.876;2023-09-07T14:14:19;23.50;59.80
14585;DHT22;7379;51.506;11.876;2023-09-07T14:16:46;23.50;59.70
14585;DHT22;7379;51.506;11.876;2023-09-07T14:19:13;23.60;59.60
14585;DHT22;7379;51.506;11.876;2023-09-07T14:21:40;23.60;59.70
14585;DHT22;7379;51.506;11.876;2023-09-07T14:24:07;23.60;59.20
14585;DHT22;7379;51.506;11.876;2023-09-07T14:26:33;23.60;59.50
14585;DHT22;7379;51.506;11.876;2023-09-07T14:29:01;23.70;59.70
14585;DHT22;7379;51.506;11.876;2023-09-07T14:31:28;23.90;59.70
14585;DHT22;7379;51.506;11.876;2023-09-07T14:33:55;24.00;59.30
14585;DHT22;7379;51.506;11.876;2023-09-07T14:36:21;24.00;58.70
14585;DHT22;7379;51.506;11.876;2023-09-07T14:38:48;24.10;59.10
14585;DHT22;7379;51.506;11.876;2023-09-07T14:41:15;24.20;58.70
14585;DHT22;7379;51.506;11.876;2023-09-07T14:43:44;24.20;58.70
14585;DHT22;7379;51.506;11.876;2023-09-07T14:46:13;24.20;58.40
14585;DHT22;7379;51.506;11.876;2023-09-07T14:48:40;24.20;58.80
14585;DHT22;7379;51.506;11.876;2023-09-07T14:51:07;24.20;58.30
14585;DHT22;7379;51.506;11.876;2023-09-07T14:53:34;24.40;58.70
14585;DHT22;7379;51.506;11.876;2023-09-07T14:56:01;24.50;58.40
14585;DHT22;7379;51.506;11.876;2023-09-07T14:58:28;24.40;58.00
14585;DHT22;7379;51.506;11.876;2023-09-07T15:00:55;24.40;57.80
14585;DHT22;7379;51.506;11.876;2023-09-07T15:03:23;24.50;58.00
14585;DHT22;7379;51.506;11.876;2023-09-07T15:05:51;24.50;57.70
14585;DHT22;7379;51.506;11.876;2023-09-07T15:08:17;24.60;58.10
14585;DHT22;7379;51.506;11.876;2023-09-07T15:10:44;24.60;58.20
14585;DHT22;7379;51.506;11.876;2023-09-07T15:13:11;24.70;57.90
14585;DHT22;7379;51.506;11.876;2023-09-07T15:15:38;24.80;57.80
14585;DHT22;7379;51.506;11.876;2023-09-07T15:18:06;24.90;57.30
14585;DHT22;7379;51.506;11.876;2023-09-07T15:20:34;25.00;58.00
14585;DHT22;7379;51.506;11.876;2023-09-07T15:23:01;25.00;57.20
14585;DHT22;7379;51.506;11.876;2023-09-07T15:25:28;25.10;57.00
14585;DHT22;7379;51.506;11.876;2023-09-07T15:27:55;25.20;56.70
14585;DHT22;7379;51.506;11.876;2023-09-07T15:30:23;25.30;56.70
14585;DHT22;7379;51.506;11.876;2023-09-07T15:32:49;25.30;56.50
14585;DHT22;7379;51.506;11.876;2023-09-07T15:35:16;25.50;56.20